MMCS/CJS METAR and TAF weather

Enter ICAO airport designator
Station Type Date Time Source
MMCS METAR 2019/06/27 03:42 UTC NOAA

MMCS 270342Z 08020KT 7SM SCT120 SCT250 31/07 A3007 RMK 8/062 ISOL SC BLDU


Station Type Date Time Source
MMCS Decoded METAR 2019/06/27 03:42 UTC NOAA

Ciudad Juarez International , Mexico (MMCS) 31-38N 106-26W
Jun 26, 2019 - 11:42 PM EDT / 2019.06.27 0342 UTC
Wind: from the E (080 degrees) at 23 MPH (20 KT):0
Visibility: 7 mile(s):0
Sky conditions: partly cloudy
Temperature: 87 F (31 C)
Dew Point: 44 F (7 C)
Relative Humidity: 22%
Pressure (altimeter): 30.07 in. Hg (1018 hPa)
ob: MMCS 270342Z 08020KT 7SM SCT120 SCT250 31/07 A3007 RMK 8/062 ISOL SC BLDU
cycle: 3

Station Type Date Time Source
MMCS TAF 2019/06/26 18:51 UTC NOAA

TAF TAF MMCS 261650Z 2618/2718 12010KT P6SM SCT040 SCT090
FM262100 16015KT P6SM SCT040CB BKN090
BECMG 2701/2702 23012KT P6SM SCT090
BECMG 2705/2706 00000KT
FM271200 12005KT P6SM SCT090

Example: see airport list